KAS weather

Kasonaweja Airstrip
Kasonaweja, Papua, Indonesia

Public forecast

Using degrees Celsius for public forecast. Weather courtesy of forecast.io.

Closest aviation weather report (METAR) to Kasonaweja Airstrip

Closest report is Frans Kaisiepo Airport, 133.4 nm (247.0 km) WNW. Retrieved 2020/01/27 17:00 UTC (56 minutes ago):

WABB 271700Z 00000KT 9999 FEW018 25/24 Q1009 NOSIG

Closest aviation forecast (TAF) to Kasonaweja Airstrip

Closest forecast is Frans Kaisiepo Airport, 133.4 nm (247.0 km) WNW. Retrieved 2020/01/27 12:17 UTC (6 hours ago):

TAF WABB 271100Z 2712/2818 29004KT 9999 FEW018 TEMPO 2713/2717 RA FEW017CB BKN018 BECMG 2721/2723 26008KT SCT018